• Join FlightAware (Why Join?)
  • Login
  • US Flag 
07:11AM EDT


 

Airport Tracker/Info


-or-


 

Live Flight TrackerFlight Track Log ✈ N516QS ✈ 17-May-2013 ✈ KPHX - PHNL

Flight Track Log - Related Links

Times and Time Zones

All times are in EDT time to prevent confusion due to time zone crossing. See the N516QS flight status page for this flight to view local times or setup timezone preferences in your user account.

Time Position Orientation Groundspeed Altitude Reporting Facility
EDT Latitude Longitude Course Direction KTS MPH feet Rate Location/Type
01:53PM 33.4333 -111.9833 90° East 217 250 2,300  Level Phoenix TRACON
01:54PM 33.4333 -111.9667 90° East 196 226 3,300 2,640 Climbing Phoenix TRACON
01:55PM 33.4500 -111.8833 76° East 241 277 6,100 3,000 Climbing Phoenix TRACON
01:56PM 33.4167 -111.8000 116° Southeast 272 313 9,400 3,000 Climbing Phoenix TRACON
01:57PM 33.3500 -111.7667 157° South 292 336 12,200 2,340 Climbing Phoenix TRACON
01:58PM 33.3058 -111.8272 229° Southwest 314 361 14,000 2,040 Climbing Albuquerque Center
01:59PM 33.3206 -111.9414 279° West 349 402 16,300 2,520 Climbing Albuquerque Center
02:00PM 33.3417 -112.0933 279° West 370 426 19,300 2,220 Climbing Albuquerque Center
02:01PM 33.3606 -112.2128 281° West 379 436 21,000 1,140 Climbing Albuquerque Center
02:02PM 33.3803 -112.3453 280° West 387 445 21,700 960 Climbing Albuquerque Center
02:03PM 33.4006 -112.4775 280° West 413 475 23,100 1,560 Climbing Albuquerque Center
02:04PM 33.4236 -112.6272 280° West 434 499 25,000 1,860 Climbing Albuquerque Center
02:05PM 33.4453 -112.7733 280° West 444 511 27,000 1,920 Climbing Albuquerque Center
02:06PM 33.4719 -112.9231 282° West 455 524 29,000 1,980 Climbing Albuquerque Center
02:07PM 33.5067 -113.0997 283° West 458 527 31,200 1,920 Climbing Albuquerque Center
02:08PM 33.5347 -113.2483 283° West 459 528 33,000 1,560 Climbing Albuquerque Center
02:09PM 33.5625 -113.3981 283° West 461 531 34,500 1,620 Climbing Albuquerque Center
02:10PM 33.5919 -113.5472 283° West 462 532 36,400 1,800 Climbing Albuquerque Center
02:11PM 33.6178 -113.6933 282° West 456 525 38,300 1,500 Climbing Albuquerque Center
02:12PM 33.6425 -113.8356 282° West 447 514 39,500 1,200 Climbing Albuquerque Center
02:13PM 33.6583 -114.0094 276° West 443 510 40,900 960 Climbing Albuquerque Center
02:14PM 33.6686 -114.1517 275° West 437 503 41,600 600 Climbing Albuquerque Center
02:15PM 33.6853 -114.2961 278° West 436 502 42,200 540 Climbing Albuquerque Center
02:16PM 33.6992 -114.4425 277° West 439 505 42,800 360 Climbing Albuquerque Center
02:18PM 33.7161 -114.6069 277° West 443 510 43,000 60 Climbing Los Angeles Center
02:19PM 33.7308 -114.7569 277° West 452 520 43,000  Level Los Angeles Center
02:20PM 33.7456 -114.9378 276° West 454 522 43,000  Level Los Angeles Center
02:21PM 33.7600 -115.0883 277° West 455 524 43,000  Level Los Angeles Center
02:22PM 33.7725 -115.2403 276° West 458 527 43,000  Level Los Angeles Center
02:23PM 33.7856 -115.3911 276° West 455 524 43,000  Level Los Angeles Center
02:24PM 33.7989 -115.5428 276° West 457 526 43,000  Level Los Angeles Center
02:25PM 33.8144 -115.7256 276° West 461 531 43,000  Level Los Angeles Center
02:26PM 33.8264 -115.8753 276° West 455 524 43,000  Level Los Angeles Center
02:27PM 33.8386 -116.0264 276° West 456 525 43,000  Level Los Angeles Center
02:28PM 33.8511 -116.1781 276° West 458 527 43,000 -60 Level Los Angeles Center
02:29PM 33.8625 -116.3283 275° West 455 524 42,900  Descending Los Angeles Center
02:30PM 33.8731 -116.4772 275° West 451 519 43,000  Climbing Los Angeles Center
02:31PM 33.8811 -116.6561 273° West 449 517 43,000  Level Los Angeles Center
02:32PM 33.8803 -116.8067 270° West 452 520 43,000  Level Los Angeles Center
02:33PM 33.8728 -116.9547 267° West 447 514 43,000  Level Los Angeles Center
02:34PM 33.8661 -117.1039 267° West 450 518 43,000  Level Los Angeles Center
02:35PM 33.8564 -117.2769 266° West 452 520 43,000  Level Los Angeles Center
02:36PM 33.8486 -117.4283 267° West 455 524 43,000  Level Los Angeles Center
02:37PM 33.8417 -117.5786 267° West 453 521 43,000  Level Los Angeles Center
02:38PM 33.8336 -117.7289 266° West 451 519 43,000  Level Los Angeles Center
02:39PM 33.8247 -117.8800 266° West 454 522 43,000  Level Los Angeles Center
02:40PM 33.8156 -118.0614 267° West 456 525 43,000  Level Los Angeles Center
02:41PM 33.8050 -118.2203 265° West 457 526 43,000  Level Los Angeles Center
02:42PM 33.7958 -118.3747 266° West 463 533 43,000  Level Los Angeles Center
02:43PM 33.7892 -118.5372 267° West 459 528 43,000  Level Los Angeles Center
02:44PM 33.7800 -118.6875 266° West 457 526 43,000  Level Los Angeles Center
02:45PM 33.7703 -118.8408 266° West 460 529 43,000  Level Los Angeles Center
02:46PM 33.7606 -118.9931 266° West 459 528 43,000  Level Los Angeles Center
02:48PM 33.7514 -119.1425 266° West 452 520 43,000  Level Los Angeles Center
02:49PM 33.7392 -119.3219 265° West 450 518 43,000  Level Los Angeles Center
02:50PM 33.7303 -119.4708 266° West 448 516 43,000  Level Los Angeles Center
02:51PM 33.7222 -119.5906 265° West 451 519 43,000  Level Los Angeles Center
02:52PM 33.7103 -119.7683 265° West 448 516 43,000  Level Los Angeles Center
02:53PM 33.6981 -119.9458 265° West 446 513 43,000  Level Los Angeles Center
02:54PM 33.6875 -120.1036 265° West 449 517 43,000  Level Los Angeles Center
02:55PM 33.6758 -120.2522 265° West 447 514 43,000  Level Los Angeles Center
02:56PM 33.6617 -120.4319 265° West 449 517 43,000  Level Los Angeles Center
02:57PM 33.6478 -120.6094 265° West 446 513 43,000  Level Los Angeles Center
02:58PM 33.6364 -120.7600 265° West 444 511 43,000  Level Los Angeles Center
02:59PM 33.6253 -120.9069 265° West 448 516 43,000  Level Los Angeles Center
03:01PM 33.6125 -121.0525 264° West 443 510 43,000  Level Los Angeles Center
03:02PM 33.5983 -121.2261 264° West 437 503 43,000  Level Los Angeles Center
03:03PM 33.5856 -121.3706 264° West 436 502 43,000  Level Los Angeles Center
03:04PM 33.5722 -121.5475 265° West 441 507 43,000  Level Los Angeles Center
03:05PM 33.5617 -121.6628 264° West 440 506 43,000  Level Los Angeles Center
03:06PM 33.5450 -121.8392 264° West 441 507 43,000  Level Los Angeles Center
03:07PM 33.5303 -122.0164 264° West 445 512 43,000  Level Los Angeles Center
03:08PM 33.5200 -122.1350 264° West 446 513 43,000  Level Los Angeles Center
03:09PM 33.5047 -122.3136 264° West 448 516 43,000  Level Los Angeles Center
03:10PM 33.4825 -122.4869 261° West 445 512 43,000  Level Los Angeles Center
03:12PM 33.4450 -122.6922 257° West  Level FlightAware Approximate
03:19PM 33.2393 -123.6983 257° West  Level FlightAware Approximate
03:20PM 33.2093 -123.8416 256° West  Level FlightAware Approximate
03:21PM 33.1791 -123.9848 256° West  Level FlightAware Approximate
03:22PM 33.1487 -124.1280 256° West  Level FlightAware Approximate
03:23PM 33.1182 -124.2710 256° West  Level FlightAware Approximate
03:24PM 33.0875 -124.4139 256° West  Level FlightAware Approximate
03:25PM 33.0583 -124.5540 255° West  Level FlightAware Approximate
03:26PM 33.0264 -124.6965 255° West  Level FlightAware Approximate
03:27PM 32.9944 -124.8388 255° West  Level FlightAware Approximate
03:27PM 33.0667 -124.5167 255° West 467 537 43,000  Level Oakland Oceanic (ODAPS)
03:28PM 32.9621 -124.9811 255° West  Level FlightAware Approximate
03:29PM 32.9297 -125.1232 255° West  Level FlightAware Approximate
03:30PM 32.8971 -125.2657 255° West  Level FlightAware Approximate
03:31PM 32.8643 -125.4081 255° West  Level FlightAware Approximate
03:32PM 32.8313 -125.5503 255° West  Level FlightAware Approximate
03:33PM 32.7982 -125.6925 255° West  Level FlightAware Approximate
03:34PM 32.7243 -126.0066 254° West 467 537 43,000  Level FlightAware Transoceanic
03:35PM 32.6891 -126.1550 254° West 467 537 43,000  Level FlightAware Transoceanic
03:36PM 32.6537 -126.3032 254° West 467 537 43,000  Level FlightAware Transoceanic
03:37PM 32.6182 -126.4513 254° West 467 537 43,000  Level FlightAware Transoceanic
03:38PM 32.5825 -126.5993 254° West 467 537 43,000  Level FlightAware Transoceanic
03:39PM 32.5466 -126.7472 254° West 467 537 43,000  Level FlightAware Transoceanic
03:40PM 32.5105 -126.8950 254° West 467 537 43,000  Level FlightAware Transoceanic
03:41PM 32.4743 -127.0426 254° West 467 537 43,000  Level FlightAware Transoceanic
03:42PM 32.4378 -127.1901 254° West 467 537 43,000  Level FlightAware Transoceanic
03:43PM 32.4012 -127.3375 254° West 467 537 43,000  Level FlightAware Transoceanic
03:44PM 32.3645 -127.4848 253° West 467 537 43,000  Level FlightAware Transoceanic
03:45PM 32.3276 -127.6320 253° West 467 537 43,000  Level FlightAware Transoceanic
03:46PM 32.2905 -127.7791 253° West 467 537 43,000  Level FlightAware Transoceanic
03:47PM 32.2532 -127.9260 253° West 467 537 43,000  Level FlightAware Transoceanic
03:48PM 32.2158 -128.0728 253° West 467 537 43,000  Level FlightAware Transoceanic
03:49PM 32.1781 -128.2195 253° West 467 537 43,000  Level FlightAware Transoceanic
03:50PM 32.1404 -128.3660 253° West 467 537 43,000  Level FlightAware Transoceanic
03:51PM 32.1024 -128.5125 253° West 467 537 43,000  Level FlightAware Transoceanic
03:52PM 32.0643 -128.6588 253° West 467 537 43,000  Level FlightAware Transoceanic
03:53PM 32.0260 -128.8050 253° West 467 537 43,000  Level FlightAware Transoceanic
03:54PM 31.9876 -128.9511 253° West 467 537 43,000  Level FlightAware Transoceanic
03:55PM 31.9489 -129.0970 253° West 467 537 43,000  Level FlightAware Transoceanic
03:56PM 31.9102 -129.2429 253° West 467 537 43,000  Level FlightAware Transoceanic
03:57PM 31.8712 -129.3886 252° West 467 537 43,000  Level FlightAware Transoceanic
03:58PM 31.8321 -129.5342 252° West 467 537 43,000  Level FlightAware Transoceanic
03:59PM 31.7928 -129.6796 252° West 467 537 43,000  Level FlightAware Transoceanic
04:00PM 31.7533 -129.8250 252° West 467 537 43,000  Level FlightAware Transoceanic
04:01PM 31.7137 -129.9702 252° West 467 537 43,000  Level FlightAware Transoceanic
04:02PM 31.6740 -130.1152 252° West 467 537 43,000  Level FlightAware Transoceanic
04:03PM 31.6340 -130.2602 252° West 467 537 43,000  Level FlightAware Transoceanic
04:04PM 31.5939 -130.4051 252° West 467 537 43,000  Level FlightAware Transoceanic
04:05PM 31.5536 -130.5498 252° West 467 537 43,000  Level FlightAware Transoceanic
04:06PM 31.5132 -130.6944 252° West 467 537 43,000  Level FlightAware Transoceanic
04:07PM 31.4726 -130.8388 252° West 467 537 43,000  Level FlightAware Transoceanic
04:08PM 31.4318 -130.9832 252° West 467 537 43,000  Level FlightAware Transoceanic
04:09PM 31.3909 -131.1274 252° West 467 537 43,000  Level FlightAware Transoceanic
04:10PM 31.3498 -131.2715 251° West 467 537 43,000  Level FlightAware Transoceanic
04:11PM 31.3086 -131.4154 251° West 467 537 43,000  Level FlightAware Transoceanic
04:12PM 31.2672 -131.5593 251° West 467 537 43,000  Level FlightAware Transoceanic
04:13PM 31.2256 -131.7030 251° West 467 537 43,000  Level FlightAware Transoceanic
04:14PM 31.1839 -131.8466 251° West 467 537 43,000  Level FlightAware Transoceanic
04:15PM 31.1420 -131.9900 251° West 467 537 43,000  Level FlightAware Transoceanic
04:16PM 31.1000 -132.1333 251° West 467 537 43,000  Level FlightAware Transoceanic
04:17PM 31.0569 -132.2798 251° West 467 537 43,000  Level FlightAware Transoceanic
04:17PM 31.1000 -132.1333 251° West 468 539 43,000  Level Oakland Oceanic (ODAPS)
04:18PM 31.0136 -132.4262 251° West 467 537 43,000  Level FlightAware Transoceanic
04:19PM 30.9702 -132.5724 251° West 467 537 43,000  Level FlightAware Transoceanic
04:20PM 30.9266 -132.7186 251° West 467 537 43,000  Level FlightAware Transoceanic
04:21PM 30.8828 -132.8645 251° West 467 537 43,000  Level FlightAware Transoceanic
04:22PM 30.8389 -133.0104 251° West 467 537 43,000  Level FlightAware Transoceanic
04:23PM 30.7948 -133.1561 251° West 467 537 43,000  Level FlightAware Transoceanic
04:24PM 30.7574 -133.2793 250° West 468 539 43,000  Level FlightAware Transoceanic
04:25PM 30.7139 -133.4219 250° West 468 539 43,000  Level FlightAware Transoceanic
04:26PM 30.6702 -133.5645 250° West 468 539 43,000  Level FlightAware Transoceanic
04:27PM 30.6263 -133.7069 250° West 468 539 43,000  Level FlightAware Transoceanic
04:28PM 30.5823 -133.8491 250° West 468 539 43,000  Level FlightAware Transoceanic
04:29PM 30.5382 -133.9913 250° West 468 539 43,000  Level FlightAware Transoceanic
04:30PM 30.4939 -134.1333 250° West 468 539 43,000  Level FlightAware Transoceanic
04:31PM 30.4494 -134.2752 250° West 468 539 43,000  Level FlightAware Transoceanic
04:32PM 30.4048 -134.4169 250° West 468 539 43,000  Level FlightAware Transoceanic
04:33PM 30.3600 -134.5586 250° West 468 539 43,000  Level FlightAware Transoceanic
04:34PM 30.3151 -134.7001 250° West 468 539 43,000  Level FlightAware Transoceanic
04:35PM 30.2700 -134.8414 250° West 468 539 43,000  Level FlightAware Transoceanic
04:36PM 30.2248 -134.9827 250° West 468 539 43,000  Level FlightAware Transoceanic
04:37PM 30.1794 -135.1238 250° West 468 539 43,000  Level FlightAware Transoceanic
04:38PM 30.1339 -135.2648 249° West 468 539 43,000  Level FlightAware Transoceanic
04:39PM 30.0882 -135.4056 249° West 468 539 43,000  Level FlightAware Transoceanic
04:40PM 30.0424 -135.5463 249° West 468 539 43,000  Level FlightAware Transoceanic
04:41PM 29.9964 -135.6869 249° West 468 539 43,000  Level FlightAware Transoceanic
04:42PM 29.9503 -135.8274 249° West 468 539 43,000  Level FlightAware Transoceanic
04:43PM 29.9040 -135.9677 249° West 468 539 43,000  Level FlightAware Transoceanic
04:44PM 29.8576 -136.1079 249° West 468 539 43,000  Level FlightAware Transoceanic
04:45PM 29.8110 -136.2479 249° West 468 539 43,000  Level FlightAware Transoceanic
04:46PM 29.7643 -136.3879 249° West 468 539 43,000  Level FlightAware Transoceanic
04:47PM 29.7174 -136.5277 249° West 468 539 43,000  Level FlightAware Transoceanic
04:48PM 29.6704 -136.6673 249° West 468 539 43,000  Level FlightAware Transoceanic
04:49PM 29.6233 -136.8069 249° West 468 539 43,000  Level FlightAware Transoceanic
04:50PM 29.5760 -136.9463 249° West 468 539 43,000  Level FlightAware Transoceanic
04:51PM 29.5285 -137.0856 249° West 468 539 43,000  Level FlightAware Transoceanic
04:52PM 29.4809 -137.2247 249° West 468 539 43,000  Level FlightAware Transoceanic
04:53PM 29.4332 -137.3638 248° West 468 539 43,000  Level FlightAware Transoceanic
04:54PM 29.3853 -137.5026 248° West 468 539 43,000  Level FlightAware Transoceanic
04:55PM 29.3373 -137.6414 248° West 468 539 43,000  Level FlightAware Transoceanic
04:56PM 29.2891 -137.7800 248° West 468 539 43,000  Level FlightAware Transoceanic
04:57PM 29.2408 -137.9185 248° West 468 539 43,000  Level FlightAware Transoceanic
04:58PM 29.1923 -138.0569 248° West 468 539 43,000  Level FlightAware Transoceanic
04:59PM 29.1437 -138.1951 248° West 468 539 43,000  Level FlightAware Transoceanic
05:00PM 29.0950 -138.3332 248° West 468 539 43,000  Level FlightAware Transoceanic
05:01PM 29.0461 -138.4712 248° West 468 539 43,000  Level FlightAware Transoceanic
05:02PM 28.9971 -138.6090 248° West 468 539 43,000  Level FlightAware Transoceanic
05:03PM 28.9479 -138.7467 248° West 468 539 43,000  Level FlightAware Transoceanic
05:04PM 28.8986 -138.8843 248° West 468 539 43,000  Level FlightAware Transoceanic
05:05PM 28.8492 -139.0218 248° West 468 539 43,000  Level FlightAware Transoceanic
05:06PM 28.7996 -139.1591 248° West 468 539 43,000  Level FlightAware Transoceanic
05:07PM 28.7499 -139.2963 248° West 468 539 43,000  Level FlightAware Transoceanic
05:08PM 28.7000 -139.4333 247° West 468 539 43,000  Level FlightAware Transoceanic
05:09PM 28.6482 -139.5741 247° West 468 539 43,000  Level FlightAware Transoceanic
05:10PM 28.5963 -139.7146 247° West 468 539 43,000  Level FlightAware Transoceanic
05:10PM 28.7000 -139.4333 247° West 463 533 43,000  Level Oakland Oceanic (ODAPS)
05:11PM 28.5442 -139.8551 247° West 468 539 43,000  Level FlightAware Transoceanic
05:12PM 28.4920 -139.9954 247° West 468 539 43,000  Level FlightAware Transoceanic
05:13PM 28.4396 -140.1355 247° West 468 539 43,000  Level FlightAware Transoceanic
05:14PM 28.3871 -140.2756 247° West 468 539 43,000  Level FlightAware Transoceanic
05:15PM 28.3345 -140.4155 247° West 468 539 43,000  Level FlightAware Transoceanic
05:16PM 28.3489 -140.3771 247° West 463 533 43,000  Level FlightAware Transoceanic
05:17PM 28.2983 -140.5114 247° West 463 533 43,000  Level FlightAware Transoceanic
05:18PM 28.2474 -140.6456 247° West 463 533 43,000  Level FlightAware Transoceanic
05:19PM 28.1965 -140.7796 247° West 463 533 43,000  Level FlightAware Transoceanic
05:20PM 28.1454 -140.9135 247° West 463 533 43,000  Level FlightAware Transoceanic
05:21PM 28.0942 -141.0473 247° West 463 533 43,000  Level FlightAware Transoceanic
05:22PM 28.0429 -141.1810 246° West 463 533 43,000  Level FlightAware Transoceanic
05:23PM 27.9914 -141.3145 246° West 463 533 43,000  Level FlightAware Transoceanic
05:24PM 27.9398 -141.4479 246° West 463 533 43,000  Level FlightAware Transoceanic
05:25PM 27.8881 -141.5812 246° West 463 533 43,000  Level FlightAware Transoceanic
05:26PM 27.8362 -141.7144 246° West 463 533 43,000  Level FlightAware Transoceanic
05:27PM 27.7843 -141.8474 246° West 463 533 43,000  Level FlightAware Transoceanic
05:28PM 27.7322 -141.9803 246° West 463 533 43,000  Level FlightAware Transoceanic
05:29PM 27.6799 -142.1131 246° West 463 533 43,000  Level FlightAware Transoceanic
05:30PM 27.6276 -142.2457 246° West 463 533 43,000  Level FlightAware Transoceanic
05:31PM 27.5751 -142.3783 246° West 463 533 43,000  Level FlightAware Transoceanic
05:32PM 27.5225 -142.5107 246° West 463 533 43,000  Level FlightAware Transoceanic
05:33PM 27.4697 -142.6429 246° West 463 533 43,000  Level FlightAware Transoceanic
05:34PM 27.4169 -142.7751 246° West 463 533 43,000  Level FlightAware Transoceanic
05:35PM 27.3639 -142.9071 246° West 463 533 43,000  Level FlightAware Transoceanic
05:36PM 27.3108 -143.0390 246° West 463 533 43,000  Level FlightAware Transoceanic
05:37PM 27.2575 -143.1707 246° West 463 533 43,000  Level FlightAware Transoceanic
05:38PM 27.2042 -143.3024 245° Southwest 463 533 43,000  Level FlightAware Transoceanic
05:39PM 27.1507 -143.4339 245° Southwest 463 533 43,000  Level FlightAware Transoceanic
05:40PM 27.0971 -143.5652 245° Southwest 463 533 43,000  Level FlightAware Transoceanic
05:41PM 27.0434 -143.6965 245° Southwest 463 533 43,000  Level FlightAware Transoceanic
05:42PM 26.9895 -143.8276 245° Southwest 463 533 43,000  Level FlightAware Transoceanic
05:43PM 26.9356 -143.9586 245° Southwest 463 533 43,000  Level FlightAware Transoceanic
05:44PM 26.8815 -144.0895 245° Southwest 463 533 43,000  Level FlightAware Transoceanic
05:45PM 26.8273 -144.2203 245° Southwest 463 533 43,000  Level FlightAware Transoceanic
05:46PM 26.7730 -144.3509 245° Southwest 463 533 43,000  Level FlightAware Transoceanic
05:47PM 26.7185 -144.4814 245° Southwest 463 533 43,000  Level FlightAware Transoceanic
05:48PM 26.6639 -144.6118 245° Southwest 463 533 43,000  Level FlightAware Transoceanic
05:49PM 26.6093 -144.7421 245° Southwest 463 533 43,000  Level FlightAware Transoceanic
05:50PM 26.5545 -144.8722 245° Southwest 463 533 43,000  Level FlightAware Transoceanic
05:51PM 26.4995 -145.0022 245° Southwest 463 533 43,000  Level FlightAware Transoceanic
05:52PM 26.4445 -145.1321 245° Southwest 463 533 43,000  Level FlightAware Transoceanic
05:53PM 26.3894 -145.2618 245° Southwest 463 533 43,000  Level FlightAware Transoceanic
05:54PM 26.3341 -145.3915 245° Southwest 463 533 43,000  Level FlightAware Transoceanic
05:55PM 26.2787 -145.5210 244° Southwest 463 533 43,000  Level FlightAware Transoceanic
05:56PM 26.2232 -145.6504 244° Southwest 463 533 43,000  Level FlightAware Transoceanic
05:57PM 26.1676 -145.7796 244° Southwest 463 533 43,000  Level FlightAware Transoceanic
05:58PM 26.1118 -145.9088 244° Southwest 463 533 43,000  Level FlightAware Transoceanic
05:59PM 26.0560 -146.0378 244° Southwest 463 533 43,000  Level FlightAware Transoceanic
06:00PM 26.0000 -146.1667 244° Southwest 463 533 43,000  Level FlightAware Transoceanic
06:00PM 26.0000 -146.1667 244° Southwest 453 521 43,000  Level Oakland Oceanic (ODAPS)
06:01PM 25.9442 -146.2955 244° Southwest 463 533 43,000  Level FlightAware Transoceanic
06:02PM 25.8883 -146.4241 244° Southwest 463 533 43,000  Level FlightAware Transoceanic
06:03PM 25.8322 -146.5527 244° Southwest 463 533 43,000  Level FlightAware Transoceanic
06:04PM 25.7761 -146.6811 244° Southwest 463 533 43,000  Level FlightAware Transoceanic
06:05PM 25.7198 -146.8094 244° Southwest 463 533 43,000  Level FlightAware Transoceanic
06:06PM 25.6635 -146.9376 244° Southwest 463 533 43,000  Level FlightAware Transoceanic
06:07PM 25.5591 -147.1739 244° Southwest 453 521 43,000  Level FlightAware Transoceanic
06:08PM 25.5035 -147.2993 244° Southwest 453 521 43,000  Level FlightAware Transoceanic
06:09PM 25.4478 -147.4245 244° Southwest 453 521 43,000  Level FlightAware Transoceanic
06:10PM 25.3920 -147.5497 244° Southwest 453 521 43,000  Level FlightAware Transoceanic
06:11PM 25.3360 -147.6747 244° Southwest 453 521 43,000  Level FlightAware Transoceanic
06:12PM 25.2800 -147.7997 244° Southwest 453 521 43,000  Level FlightAware Transoceanic
06:13PM 25.2239 -147.9245 244° Southwest 453 521 43,000  Level FlightAware Transoceanic
06:14PM 25.1677 -148.0491 243° Southwest 453 521 43,000  Level FlightAware Transoceanic
06:15PM 25.1113 -148.1737 243° Southwest 453 521 43,000  Level FlightAware Transoceanic
06:16PM 25.0549 -148.2982 243° Southwest 453 521 43,000  Level FlightAware Transoceanic
06:17PM 24.9983 -148.4225 243° Southwest 453 521 43,000  Level FlightAware Transoceanic
06:18PM 24.9417 -148.5467 243° Southwest 453 521 43,000  Level FlightAware Transoceanic
06:19PM 24.8849 -148.6708 243° Southwest 453 521 43,000  Level FlightAware Transoceanic
06:20PM 24.8281 -148.7948 243° Southwest 453 521 43,000  Level FlightAware Transoceanic
06:21PM 24.7711 -148.9187 243° Southwest 453 521 43,000  Level FlightAware Transoceanic
06:22PM 24.7141 -149.0425 243° Southwest 453 521 43,000  Level FlightAware Transoceanic
06:23PM 24.6569 -149.1662 243° Southwest 453 521 43,000  Level FlightAware Transoceanic
06:24PM 24.5996 -149.2897 243° Southwest 453 521 43,000  Level FlightAware Transoceanic
06:25PM 24.5423 -149.4131 243° Southwest 453 521 43,000  Level FlightAware Transoceanic
06:26PM 24.4848 -149.5365 243° Southwest 453 521 43,000  Level FlightAware Transoceanic
06:27PM 24.4272 -149.6597 243° Southwest 453 521 43,000  Level FlightAware Transoceanic
06:28PM 24.3696 -149.7827 243° Southwest 453 521 43,000  Level FlightAware Transoceanic
06:29PM 24.3118 -149.9057 243° Southwest 453 521 43,000  Level FlightAware Transoceanic
06:30PM 24.2540 -150.0286 243° Southwest 453 521 43,000  Level FlightAware Transoceanic
06:31PM 24.1960 -150.1514 243° Southwest 453 521 43,000  Level FlightAware Transoceanic
06:32PM 24.1380 -150.2740 243° Southwest 453 521 43,000  Level FlightAware Transoceanic
06:33PM 24.0798 -150.3965 243° Southwest 453 521 43,000  Level FlightAware Transoceanic
06:34PM 24.0215 -150.5190 242° Southwest 453 521 43,000  Level FlightAware Transoceanic
06:35PM 23.9632 -150.6413 242° Southwest 453 521 43,000  Level FlightAware Transoceanic
06:36PM 23.9047 -150.7635 242° Southwest 453 521 43,000  Level FlightAware Transoceanic
06:37PM 23.8462 -150.8855 242° Southwest 453 521 43,000  Level FlightAware Transoceanic
06:38PM 23.7876 -151.0075 242° Southwest 453 521 43,000  Level FlightAware Transoceanic
06:39PM 23.7288 -151.1294 242° Southwest 453 521 43,000  Level FlightAware Transoceanic
06:40PM 23.6700 -151.2512 242° Southwest 453 521 43,000  Level FlightAware Transoceanic
06:41PM 23.6111 -151.3728 242° Southwest 453 521 43,000  Level FlightAware Transoceanic
06:42PM 23.5520 -151.4944 242° Southwest 453 521 43,000  Level FlightAware Transoceanic
06:43PM 23.4929 -151.6158 242° Southwest 453 521 43,000  Level FlightAware Transoceanic
06:44PM 23.4337 -151.7371 242° Southwest 453 521 43,000  Level FlightAware Transoceanic
06:45PM 23.3744 -151.8583 242° Southwest 453 521 43,000  Level FlightAware Transoceanic
06:46PM 23.3150 -151.9794 242° Southwest 453 521 43,000  Level FlightAware Transoceanic
06:47PM 23.2555 -152.1004 242° Southwest 453 521 43,000  Level FlightAware Transoceanic
06:48PM 23.1960 -152.2213 242° Southwest 453 521 43,000  Level FlightAware Transoceanic
06:49PM 23.1363 -152.3421 242° Southwest 453 521 43,000  Level FlightAware Transoceanic
06:50PM 23.0765 -152.4628 242° Southwest 453 521 43,000  Level FlightAware Transoceanic
06:51PM 23.0167 -152.5833 242° Southwest 453 521 43,000  Level FlightAware Transoceanic
06:52PM 22.9580 -152.7020 242° Southwest 453 521 43,000  Level FlightAware Transoceanic
06:53PM 22.8993 -152.8206 242° Southwest 453 521 43,000  Level FlightAware Transoceanic
06:53PM 22.9667 -152.6833 241° Southwest 430 495 43,000  Level Honolulu Center
06:54PM 22.8404 -152.9391 242° Southwest 453 521 43,000  Level FlightAware Transoceanic
06:54PM 22.9167 -152.7833 242° Southwest 420 483 43,000  Level Honolulu Center
06:55PM 22.7815 -153.0575 242° Southwest 453 521 43,000  Level FlightAware Transoceanic
06:55PM 22.8500 -152.9000 238° Southwest 430 495 43,000  Level Honolulu Center
06:56PM 22.7225 -153.1758 242° Southwest 453 521 43,000  Level FlightAware Transoceanic
06:56PM 22.8167 -153.0167 253° West 430 495 43,000  Level Honolulu Center
06:57PM 22.6634 -153.2939 242° Southwest 453 521 43,000  Level FlightAware Transoceanic
06:57PM 22.7833 -153.1333 253° West 430 495 43,000  Level Honolulu Center
06:58PM 22.6042 -153.4120 241° Southwest 453 521 43,000  Level FlightAware Transoceanic
06:58PM 22.7500 -153.2667 255° West 430 495 43,000  Level Honolulu Center
06:59PM 22.7167 -153.4000 255° West 440 506 43,000  Level Honolulu Center
07:00PM 22.6667 -153.5167 245° Southwest 440 506 43,000  Level Honolulu Center
07:01PM 22.6333 -153.6500 255° West 430 495 43,000  Level Honolulu Center
07:02PM 22.6000 -153.7667 253° West 440 506 43,000  Level Honolulu Center
07:03PM 22.5500 -153.8833 245° Southwest 430 495 43,000  Level Honolulu Center
07:04PM 22.5167 -154.0167 255° West 430 495 43,000  Level Honolulu Center
07:05PM 22.4833 -154.1333 253° West 430 495 43,000  Level Honolulu Center
07:06PM 22.4500 -154.2667 255° West 440 506 43,000  Level Honolulu Center
07:07PM 22.4000 -154.3833 245° Southwest 440 506 43,000  Level Honolulu Center
07:08PM 22.3667 -154.5167 255° West 440 506 43,000  Level Honolulu Center
07:09PM 22.3333 -154.6333 253° West 440 506 43,000  Level Honolulu Center
07:10PM 22.2833 -154.7667 248° West 440 506 43,000  Level Honolulu Center
07:11PM 22.2500 -154.8833 253° West 440 506 43,000  Level Honolulu Center
07:12PM 22.2167 -155.0167 255° West 450 518 43,000  Level Honolulu Center
07:13PM 22.1667 -155.1500 248° West 440 506 43,000  Level Honolulu Center
07:14PM 22.1333 -155.2667 253° West 440 506 43,000 -60 Level Honolulu Center
07:15PM 22.0833 -155.4000 248° West 450 518 42,900 -780 Descending Honolulu Center
07:16PM 22.0500 -155.5167 253° West 440 506 41,500 -1,740 Descending Honolulu Center
07:17PM 22.0167 -155.6500 255° West 430 495 39,500 -2,040 Descending Honolulu Center
07:18PM 21.9667 -155.7667 245° Southwest 430 495 37,500 -1,920 Descending Honolulu Center
07:19PM 21.9333 -155.8833 253° West 440 506 35,700 -2,100 Descending Honolulu Center
07:20PM 21.9000 -156.0167 255° West 450 518 33,300 -2,340 Descending Honolulu Center
07:21PM 21.8500 -156.1500 248° West 460 529 31,100 -2,280 Descending Honolulu Center
07:22PM 21.8000 -156.2833 248° West 470 541 28,800 -2,280 Descending Honolulu Center
07:23PM 21.7667 -156.4167 255° West 480 552 26,600 -2,100 Descending Honolulu Center
07:24PM 21.7167 -156.5500 248° West 460 529 24,600 -2,100 Descending Honolulu Center
07:25PM 21.6833 -156.6667 253° West 440 506 22,400 -2,160 Descending Honolulu Center
07:26PM 21.6333 -156.8167 250° West 430 495 20,300 -2,100 Descending Honolulu Center
07:27PM 21.6000 -156.9333 253° West 420 483 18,300 -1,980 Descending Honolulu Center
07:28PM 21.5500 -157.0500 245° Southwest 410 472 16,400 -1,920 Descending Honolulu Center
07:29PM 21.5167 -157.1667 253° West 400 460 14,500 -1,860 Descending Honolulu Center
07:30PM 21.4833 -157.2667 250° West 390 449 12,700 -1,860 Descending Honolulu Center
07:31PM 21.4500 -157.3833 253° West 380 437 10,800 -1,380 Descending Honolulu Center
07:32PM 21.4167 -157.4833 250° West 380 437 10,000 -420 Descending Honolulu Center
07:33PM 21.3667 -157.5833 242° Southwest 390 449 10,000 -300 Level Honolulu Center
07:34PM 21.3333 -157.6833 250° West 330 380 9,400 -600 Descending Honolulu Center